Aviation Digital Data Service (ADDS)

Output produced by METARs form (0237 UTC 03 July 2015)
found at http://www.aviationweather.gov/adds/metars/
 
KBOS 022325Z 0300/0406 23008KT P6SM BKN060 
     FM030500 30005KT P6SM BKN060 
     FM030800 33006KT P6SM SCT050 
     FM031400 03004KT P6SM FEW250 
     FM032100 12004KT P6SM FEW250 
     FM040300 18004KT P6SM FEW250